createdAt,value
2018-06-16T00:00:53.463Z,29.10
2018-06-16T00:03:26.709Z,29.20
2018-06-16T00:05:59.998Z,29.20
2018-06-16T00:08:33.044Z,29.30
2018-06-16T00:11:06.188Z,29.30
2018-06-16T00:13:39.239Z,29.40
2018-06-16T00:18:44.116Z,29.50
2018-06-16T00:21:17.152Z,29.60
2018-06-16T00:23:50.240Z,29.60
2018-06-16T00:26:23.269Z,29.70
2018-06-16T00:28:56.504Z,29.70
2018-06-16T00:31:29.597Z,29.80
2018-06-16T00:34:02.760Z,29.90
2018-06-16T00:36:35.965Z,29.90
2018-06-16T00:39:12.017Z,30.00
2018-06-16T00:41:45.148Z,30.00
2018-06-16T00:44:18.272Z,30.10
2018-06-16T00:46:51.378Z,30.10
2018-06-16T00:49:24.672Z,30.20
2018-06-16T00:51:57.773Z,30.30
2018-06-16T00:54:30.900Z,30.40
2018-06-16T00:57:12.860Z,30.50
2018-06-16T00:59:45.937Z,30.50
2018-06-16T01:02:19.004Z,30.70
2018-06-16T01:04:52.130Z,30.80
2018-06-16T01:07:25.161Z,30.90
2018-06-16T01:09:58.281Z,31.00
2018-06-16T01:12:31.439Z,31.20
2018-06-16T01:15:04.545Z,31.30
2018-06-16T01:17:37.619Z,31.40
2018-06-16T01:22:43.848Z,31.70
2018-06-16T01:25:16.873Z,31.90
2018-06-16T01:27:50.040Z,32.00
2018-06-16T01:30:23.176Z,32.00
2018-06-16T01:35:28.029Z,32.20
2018-06-16T01:38:01.205Z,32.20
2018-06-16T01:40:34.276Z,32.20
2018-06-16T01:48:10.617Z,32.30
2018-06-16T01:50:44.802Z,32.40
2018-06-16T01:53:18.015Z,32.40
2018-06-16T01:55:56.288Z,32.40
2018-06-16T01:58:29.813Z,32.40
2018-06-16T02:01:02.960Z,32.50
2018-06-16T02:03:36.092Z,32.50
2018-06-16T02:06:09.168Z,32.60
2018-06-16T02:08:42.280Z,32.70
2018-06-16T02:11:15.249Z,32.80
2018-06-16T02:13:48.314Z,32.90
2018-06-16T02:16:21.732Z,33.10
2018-06-16T02:18:54.934Z,33.20
2018-06-16T02:21:27.992Z,33.30
2018-06-16T02:24:01.153Z,33.50
2018-06-16T02:26:34.284Z,33.60
2018-06-16T02:29:07.316Z,33.80
2018-06-16T02:31:41.335Z,34.00
2018-06-16T02:34:14.476Z,34.20
2018-06-16T02:36:47.616Z,34.30
2018-06-16T02:39:20.738Z,34.30
2018-06-16T02:41:53.878Z,34.30
2018-06-16T02:44:27.001Z,34.40
2018-06-16T02:47:00.046Z,34.50
2018-06-16T02:49:33.164Z,35.10
2018-06-16T02:52:06.269Z,34.90
2018-06-16T02:54:39.450Z,35.00
2018-06-16T02:57:12.531Z,35.00
2018-06-16T02:59:45.635Z,35.00
2018-06-16T03:02:18.735Z,35.10
2018-06-16T03:04:51.777Z,35.20
2018-06-16T03:07:24.873Z,35.30
2018-06-16T03:09:57.914Z,35.50
2018-06-16T03:12:31.137Z,35.50
2018-06-16T03:15:04.225Z,35.60
2018-06-16T03:17:37.394Z,35.80
2018-06-16T03:20:10.512Z,35.90
2018-06-16T03:22:43.672Z,36.20
2018-06-16T03:25:16.891Z,36.40
2018-06-16T03:27:49.952Z,36.50
2018-06-16T03:30:23.184Z,36.60
2018-06-16T03:32:56.224Z,36.70
2018-06-16T03:35:29.288Z,36.80
2018-06-16T03:38:02.305Z,37.00
2018-06-16T03:40:35.405Z,37.10
2018-06-16T03:43:08.474Z,37.20
2018-06-16T03:45:41.797Z,37.20
2018-06-16T03:53:18.817Z,37.50
2018-06-16T03:55:51.965Z,37.60
2018-06-16T03:58:25.025Z,37.70
2018-06-16T04:00:58.174Z,37.80
2018-06-16T04:03:31.248Z,37.80
2018-06-16T04:06:04.247Z,37.80
2018-06-16T04:08:37.352Z,37.80
2018-06-16T04:11:10.489Z,37.90
2018-06-16T04:13:43.676Z,37.80
2018-06-16T04:16:16.656Z,37.60
2018-06-16T04:18:49.710Z,37.50
2018-06-16T04:21:22.830Z,37.20
2018-06-16T04:23:56.062Z,37.20
2018-06-16T04:26:29.137Z,37.20
2018-06-16T04:29:02.285Z,37.20
2018-06-16T04:31:35.323Z,37.30
2018-06-16T04:34:08.669Z,37.40
2018-06-16T04:36:41.765Z,37.40
2018-06-16T04:39:14.732Z,37.50
2018-06-16T04:41:47.883Z,37.60
2018-06-16T04:44:20.995Z,37.50
2018-06-16T04:46:54.049Z,37.60
2018-06-16T04:49:27.162Z,37.60
2018-06-16T04:52:00.391Z,37.60
2018-06-16T04:54:33.437Z,37.50
2018-06-16T04:57:06.486Z,37.30
2018-06-16T04:59:40.765Z,37.20
2018-06-16T05:02:13.793Z,37.10
2018-06-16T05:04:46.956Z,37.00
2018-06-16T05:07:20.108Z,37.00
2018-06-16T05:09:53.244Z,36.80
2018-06-16T05:12:26.245Z,36.70
2018-06-16T05:14:59.287Z,36.80
2018-06-16T05:17:32.370Z,36.90
2018-06-16T05:20:05.666Z,37.00
2018-06-16T05:22:39.000Z,37.20
2018-06-16T05:25:12.065Z,37.30
2018-06-16T05:27:45.174Z,37.30
2018-06-16T05:30:18.242Z,37.10
2018-06-16T05:32:51.272Z,37.10
2018-06-16T05:35:24.425Z,37.20
2018-06-16T05:37:57.622Z,37.10
2018-06-16T05:40:30.672Z,37.10
2018-06-16T05:43:03.685Z,37.10
2018-06-16T05:45:36.793Z,37.10
2018-06-16T05:48:09.882Z,37.10
2018-06-16T05:50:43.004Z,37.10
2018-06-16T05:53:16.075Z,36.80
2018-06-16T05:55:49.238Z,36.60
2018-06-16T05:58:22.309Z,36.30
2018-06-16T06:00:55.479Z,36.10
2018-06-16T06:03:28.553Z,35.90
2018-06-16T06:06:01.629Z,35.70
2018-06-16T06:08:34.832Z,35.60
2018-06-16T06:11:07.916Z,35.80
2018-06-16T06:13:41.024Z,36.10
2018-06-16T06:16:14.016Z,36.10
2018-06-16T06:18:47.061Z,36.30
2018-06-16T06:21:20.217Z,36.30
2018-06-16T06:23:53.684Z,36.30
2018-06-16T06:26:26.744Z,36.40
2018-06-16T06:28:59.897Z,36.70
2018-06-16T06:34:04.664Z,36.50
2018-06-16T06:36:37.757Z,36.60
2018-06-16T06:39:12.264Z,36.70
2018-06-16T06:41:45.279Z,36.80
2018-06-16T06:44:18.284Z,36.80
2018-06-16T06:46:51.344Z,37.10
2018-06-16T06:49:24.495Z,37.30
2018-06-16T06:51:57.617Z,37.60
2018-06-16T06:54:30.850Z,37.80
2018-06-16T06:57:04.285Z,38.00
2018-06-16T06:59:37.358Z,38.10
2018-06-16T07:02:10.389Z,37.90
2018-06-16T07:04:43.529Z,37.80
2018-06-16T07:07:16.702Z,37.70
2018-06-16T07:09:49.842Z,37.80
2018-06-16T07:12:22.968Z,38.00
2018-06-16T07:14:56.057Z,38.20
2018-06-16T07:20:00.773Z,38.30
2018-06-16T07:22:34.025Z,38.20
2018-06-16T07:27:39.229Z,37.80
2018-06-16T07:30:12.473Z,37.60
2018-06-16T07:32:45.704Z,37.40
2018-06-16T07:35:18.764Z,37.20
2018-06-16T07:37:51.858Z,37.00
2018-06-16T07:40:24.933Z,37.00
2018-06-16T07:42:57.991Z,37.00
2018-06-16T07:45:31.160Z,37.10
2018-06-16T07:48:04.262Z,37.20
2018-06-16T07:50:37.398Z,37.30
2018-06-16T07:53:10.649Z,37.30
2018-06-16T07:55:43.784Z,37.50
2018-06-16T07:58:16.798Z,37.40
2018-06-16T08:00:49.865Z,37.20
2018-06-16T08:03:22.987Z,37.20
2018-06-16T08:05:56.983Z,37.20
2018-06-16T08:08:30.066Z,37.20
2018-06-16T08:13:34.776Z,37.50
2018-06-16T08:16:08.073Z,37.70
2018-06-16T08:18:41.259Z,37.90
2018-06-16T08:21:14.360Z,38.10
2018-06-16T08:23:47.405Z,38.10
2018-06-16T08:26:20.438Z,38.00
2018-06-16T08:28:53.487Z,37.70
2018-06-16T08:31:26.778Z,37.40
2018-06-16T08:33:59.707Z,37.50
2018-06-16T08:36:32.985Z,37.30
2018-06-16T08:39:07.084Z,37.20
2018-06-16T08:41:40.162Z,37.20
2018-06-16T08:44:13.288Z,37.10
2018-06-16T08:46:46.432Z,37.10
2018-06-16T08:49:19.698Z,37.10
2018-06-16T08:51:52.713Z,37.00
2018-06-16T08:54:25.776Z,36.90
2018-06-16T08:56:58.910Z,36.70
2018-06-16T08:59:31.969Z,36.50
2018-06-16T09:02:05.055Z,36.30
2018-06-16T09:04:38.173Z,36.20
2018-06-16T09:07:11.225Z,35.90
2018-06-16T09:09:44.343Z,35.70
2018-06-16T09:12:17.405Z,35.60
2018-06-16T09:14:50.462Z,35.50
2018-06-16T09:17:23.648Z,35.50
2018-06-16T09:22:28.974Z,35.40
2018-06-16T09:25:02.315Z,35.30
2018-06-16T09:27:35.424Z,35.20
2018-06-16T09:30:08.520Z,35.10
2018-06-16T09:32:41.576Z,34.90
2018-06-16T09:35:14.716Z,34.80
2018-06-16T09:37:48.053Z,34.70
2018-06-16T09:40:21.089Z,34.60
2018-06-16T09:42:54.148Z,34.50
2018-06-16T09:45:27.280Z,34.40
2018-06-16T09:48:00.370Z,34.30
2018-06-16T09:50:33.593Z,34.30
2018-06-16T09:53:06.684Z,34.20
2018-06-16T09:55:39.752Z,34.10
2018-06-16T09:58:12.933Z,34.10
2018-06-16T10:00:46.053Z,34.00
2018-06-16T10:03:19.130Z,33.90
2018-06-16T10:05:52.164Z,33.80
2018-06-16T10:08:25.330Z,33.80
2018-06-16T10:10:58.416Z,33.70
2018-06-16T10:13:31.536Z,33.60
2018-06-16T10:16:04.535Z,33.50
2018-06-16T10:18:37.776Z,33.40
2018-06-16T10:21:10.947Z,33.40
2018-06-16T10:23:44.037Z,33.40
2018-06-16T10:26:17.137Z,33.30
2018-06-16T10:28:50.381Z,33.30
2018-06-16T10:31:23.427Z,33.20
2018-06-16T10:33:57.305Z,33.10
2018-06-16T10:36:30.641Z,33.10
2018-06-16T10:39:03.772Z,33.00
2018-06-16T10:41:36.770Z,32.90
2018-06-16T10:44:10.124Z,32.80
2018-06-16T10:46:43.520Z,32.70
2018-06-16T10:49:16.656Z,32.70
2018-06-16T10:51:49.895Z,32.60
2018-06-16T10:54:22.933Z,32.60
2018-06-16T10:56:56.096Z,32.40
2018-06-16T10:59:29.185Z,32.40
2018-06-16T11:02:02.242Z,32.40
2018-06-16T11:04:35.473Z,32.30
2018-06-16T11:07:08.716Z,32.30
2018-06-16T11:09:41.872Z,32.20
2018-06-16T11:12:15.382Z,32.20
2018-06-16T11:14:48.499Z,32.10
2018-06-16T11:17:21.602Z,32.10
2018-06-16T11:19:54.717Z,32.10
2018-06-16T11:22:27.824Z,32.00
2018-06-16T11:25:00.830Z,31.90
2018-06-16T11:27:33.987Z,31.90
2018-06-16T11:30:08.048Z,31.80
2018-06-16T11:32:41.200Z,31.80
2018-06-16T11:35:14.337Z,31.80
2018-06-16T11:37:47.586Z,31.70
2018-06-16T11:40:20.660Z,31.70
2018-06-16T11:42:53.727Z,31.70
2018-06-16T11:45:26.981Z,31.70
2018-06-16T11:47:59.997Z,31.60
2018-06-16T11:50:33.084Z,31.60
2018-06-16T11:53:06.466Z,31.60
2018-06-16T11:55:39.513Z,31.60
2018-06-16T12:00:49.569Z,31.60
2018-06-16T12:03:22.580Z,31.50
2018-06-16T12:05:56.594Z,31.50
2018-06-16T12:08:29.692Z,31.50
2018-06-16T12:11:02.879Z,31.50
2018-06-16T12:13:36.012Z,31.50
2018-06-16T12:16:09.311Z,31.40
2018-06-16T12:18:42.333Z,31.30
2018-06-16T12:21:15.849Z,31.20
2018-06-16T12:23:49.033Z,31.00
2018-06-16T12:26:22.100Z,30.90
2018-06-16T12:28:55.348Z,30.80
2018-06-16T12:31:28.403Z,30.70
2018-06-16T12:34:01.484Z,30.70
2018-06-16T12:36:34.641Z,30.60
2018-06-16T12:39:09.385Z,30.50
2018-06-16T12:41:42.699Z,30.50
2018-06-16T12:44:15.795Z,30.50
2018-06-16T12:46:49.013Z,30.40
2018-06-16T12:49:22.257Z,30.30
2018-06-16T12:51:55.421Z,30.20
2018-06-16T12:54:28.506Z,30.20
2018-06-16T12:57:01.731Z,30.20
2018-06-16T12:59:35.006Z,30.10
2018-06-16T13:02:08.099Z,30.10
2018-06-16T13:04:41.136Z,30.00
2018-06-16T13:07:14.387Z,30.00
2018-06-16T13:09:47.681Z,30.00
2018-06-16T13:12:20.750Z,30.00
2018-06-16T13:14:54.921Z,30.00
2018-06-16T13:17:28.058Z,29.90
2018-06-16T13:20:01.220Z,29.90
2018-06-16T13:22:34.276Z,29.90
2018-06-16T13:25:07.743Z,29.80
2018-06-16T13:27:40.761Z,29.80
2018-06-16T13:30:13.996Z,29.70
2018-06-16T13:32:47.164Z,29.70
2018-06-16T13:35:20.400Z,29.70
2018-06-16T13:37:53.397Z,29.70
2018-06-16T13:40:26.474Z,29.60
2018-06-16T13:42:59.474Z,29.60
2018-06-16T13:45:32.503Z,29.60
2018-06-16T13:48:06.305Z,29.60
2018-06-16T13:50:39.442Z,29.50
2018-06-16T13:53:12.481Z,29.50
2018-06-16T13:58:16.478Z,29.40
2018-06-16T14:00:49.444Z,29.40
2018-06-16T14:03:22.536Z,29.30
2018-06-16T14:08:58.168Z,29.10
2018-06-16T14:11:32.225Z,29.10
2018-06-16T14:14:05.281Z,29.20
2018-06-16T14:16:38.334Z,29.20
2018-06-16T14:19:11.451Z,29.40
2018-06-16T14:21:44.621Z,29.40
2018-06-16T14:24:17.921Z,29.40
2018-06-16T14:26:51.013Z,29.40
2018-06-16T14:29:24.191Z,29.30
2018-06-16T14:31:57.268Z,29.30
2018-06-16T14:34:30.529Z,29.30
2018-06-16T14:37:03.636Z,29.30
2018-06-16T14:39:36.828Z,29.30
2018-06-16T14:42:09.928Z,29.30
2018-06-16T14:44:43.394Z,29.30
2018-06-16T14:49:48.288Z,29.40
2018-06-16T14:52:21.342Z,29.40
2018-06-16T14:54:54.431Z,29.40
2018-06-16T14:57:27.652Z,29.40
2018-06-16T15:00:00.686Z,29.30
2018-06-16T15:02:33.799Z,29.20
2018-06-16T15:07:38.839Z,29.20
2018-06-16T15:10:11.852Z,29.20
2018-06-16T15:12:45.017Z,29.20
2018-06-16T15:15:18.128Z,29.20
2018-06-16T15:17:52.145Z,29.20
2018-06-16T15:20:25.248Z,29.10
2018-06-16T15:22:58.489Z,29.00
2018-06-16T15:28:03.336Z,29.00
2018-06-16T15:30:36.577Z,29.10
2018-06-16T15:33:10.089Z,29.10
2018-06-16T15:35:44.568Z,29.00
2018-06-16T15:38:17.619Z,29.00
2018-06-16T15:40:51.954Z,28.70
2018-06-16T15:43:25.143Z,28.70
2018-06-16T15:45:58.230Z,28.60
2018-06-16T15:48:33.588Z,28.70
2018-06-16T15:51:06.798Z,28.70
2018-06-16T15:53:39.900Z,28.70
2018-06-16T15:56:13.043Z,28.60
2018-06-16T15:58:46.174Z,28.70
2018-06-16T16:01:19.456Z,28.70
2018-06-16T16:03:52.618Z,28.70
2018-06-16T16:06:25.655Z,28.70
2018-06-16T16:08:58.893Z,28.70
2018-06-16T16:11:32.912Z,28.80
2018-06-16T16:14:06.081Z,28.80
2018-06-16T16:16:40.796Z,28.80
2018-06-16T16:19:13.849Z,28.90
2018-06-16T16:21:47.889Z,28.90
2018-06-16T16:24:21.680Z,28.90
2018-06-16T16:26:54.852Z,28.90
2018-06-16T16:29:28.084Z,28.90
2018-06-16T16:32:01.203Z,28.90
2018-06-16T16:34:34.564Z,28.70
2018-06-16T16:37:07.692Z,28.70
2018-06-16T16:39:40.842Z,28.70
2018-06-16T16:42:14.040Z,28.60
2018-06-16T16:44:47.907Z,28.50
2018-06-16T16:47:22.025Z,28.50
2018-06-16T16:49:55.788Z,28.50
2018-06-16T16:52:28.979Z,28.50
2018-06-16T16:55:02.095Z,28.40
2018-06-16T16:57:35.969Z,28.40
2018-06-16T17:00:09.286Z,28.30
2018-06-16T17:02:42.411Z,28.30
2018-06-16T17:05:15.526Z,28.30
2018-06-16T17:07:48.780Z,28.40
2018-06-16T17:10:23.449Z,28.40
2018-06-16T17:12:57.844Z,28.30
2018-06-16T17:15:31.277Z,28.30
2018-06-16T17:18:04.347Z,28.40
2018-06-16T17:20:39.051Z,28.40
2018-06-16T17:23:12.073Z,28.40
2018-06-16T17:25:45.204Z,28.30
2018-06-16T17:28:18.282Z,28.30
2018-06-16T17:30:51.289Z,28.30
2018-06-16T17:33:24.419Z,28.30
2018-06-16T17:35:57.689Z,28.30
2018-06-16T17:38:30.757Z,28.30
2018-06-16T17:41:03.885Z,28.30
2018-06-16T17:43:37.042Z,28.40
2018-06-16T17:46:10.147Z,28.40
2018-06-16T17:48:43.189Z,28.40
2018-06-16T17:51:16.257Z,28.40
2018-06-16T17:53:49.468Z,28.30
2018-06-16T17:56:22.516Z,28.40
2018-06-16T17:58:55.648Z,28.40
2018-06-16T18:01:28.782Z,28.50
2018-06-16T18:04:01.874Z,28.50
2018-06-16T18:06:34.925Z,28.50
2018-06-16T18:09:10.360Z,28.50
2018-06-16T18:11:43.529Z,28.50
2018-06-16T18:14:16.525Z,28.40
2018-06-16T18:16:49.720Z,28.40
2018-06-16T18:19:22.841Z,28.30
2018-06-16T18:21:56.003Z,28.40
2018-06-16T18:24:29.043Z,28.30
2018-06-16T18:27:02.183Z,28.20
2018-06-16T18:29:36.182Z,28.10
2018-06-16T18:32:09.300Z,28.10
2018-06-16T18:34:42.505Z,28.10
2018-06-16T18:37:15.528Z,28.10
2018-06-16T18:39:48.552Z,28.10
2018-06-16T18:42:21.684Z,28.00
2018-06-16T18:44:54.744Z,28.10
2018-06-16T18:47:27.886Z,28.00
2018-06-16T18:50:00.931Z,27.90
2018-06-16T18:52:34.071Z,27.90
2018-06-16T18:55:07.357Z,27.90
2018-06-16T18:57:40.467Z,27.80
2018-06-16T19:00:13.553Z,27.90
2018-06-16T19:02:46.689Z,27.80
2018-06-16T19:05:19.745Z,27.80
2018-06-16T19:07:52.803Z,27.70
2018-06-16T19:10:25.807Z,27.70
2018-06-16T19:12:58.881Z,27.70
2018-06-16T19:15:31.928Z,27.60
2018-06-16T19:18:05.003Z,27.60
2018-06-16T19:20:38.107Z,27.50
2018-06-16T19:23:11.339Z,27.30
2018-06-16T19:25:44.517Z,27.00
2018-06-16T19:28:17.513Z,26.80
2018-06-16T19:30:50.568Z,26.60
2018-06-16T19:33:23.656Z,26.50
2018-06-16T19:35:56.681Z,26.50
2018-06-16T19:38:29.746Z,26.50
2018-06-16T19:41:02.727Z,26.60
2018-06-16T19:43:35.756Z,26.70
2018-06-16T19:46:08.888Z,26.60
2018-06-16T19:48:41.926Z,26.50
2018-06-16T19:51:15.584Z,26.50
2018-06-16T19:53:48.614Z,26.50
2018-06-16T19:56:21.768Z,26.50
2018-06-16T19:58:54.839Z,26.40
2018-06-16T20:01:28.434Z,26.40
2018-06-16T20:06:33.122Z,26.10
2018-06-16T20:09:06.889Z,26.00
2018-06-16T20:11:40.996Z,25.90
2018-06-16T20:14:14.067Z,25.90
2018-06-16T20:16:47.167Z,25.90
2018-06-16T20:19:20.269Z,25.90
2018-06-16T20:21:53.303Z,25.90
2018-06-16T20:24:26.408Z,25.90
2018-06-16T20:26:59.488Z,25.80
2018-06-16T20:29:32.510Z,25.80
2018-06-16T20:34:37.308Z,25.70
2018-06-16T20:37:10.379Z,25.70
2018-06-16T20:39:43.456Z,25.80
2018-06-16T20:42:16.609Z,25.50
2018-06-16T20:44:49.620Z,25.50
2018-06-16T20:47:22.656Z,25.40
2018-06-16T20:49:55.765Z,25.40
2018-06-16T20:52:28.904Z,25.30
2018-06-16T20:55:01.991Z,25.40
2018-06-16T20:57:35.076Z,25.50
2018-06-16T21:00:09.161Z,25.50
2018-06-16T21:05:14.045Z,25.40
2018-06-16T21:07:47.092Z,25.40
2018-06-16T21:10:20.330Z,25.30
2018-06-16T21:12:53.468Z,25.30
2018-06-16T21:15:26.621Z,25.30
2018-06-16T21:17:59.772Z,25.30
2018-06-16T21:20:32.882Z,25.30
2018-06-16T21:23:05.980Z,25.20
2018-06-16T21:25:39.016Z,25.20
2018-06-16T21:28:12.032Z,25.10
2018-06-16T21:30:45.044Z,25.00
2018-06-16T21:33:18.176Z,24.90
2018-06-16T21:35:51.244Z,24.80
2018-06-16T21:38:24.357Z,24.80
2018-06-16T21:40:57.577Z,24.80
2018-06-16T21:43:30.621Z,24.80
2018-06-16T21:46:03.724Z,24.80
2018-06-16T21:48:36.885Z,24.80
2018-06-16T21:51:09.967Z,24.80
2018-06-16T21:53:43.113Z,24.80
2018-06-16T21:56:16.189Z,24.80
2018-06-16T21:58:49.241Z,24.80
2018-06-16T22:01:22.413Z,24.90
2018-06-16T22:03:55.620Z,24.80
2018-06-16T22:06:28.771Z,24.90
2018-06-16T22:09:01.927Z,24.90
2018-06-16T22:11:34.973Z,24.90
2018-06-16T22:14:08.047Z,24.90
2018-06-16T22:16:41.213Z,24.80
2018-06-16T22:19:14.261Z,24.80
2018-06-16T22:21:47.380Z,24.80
2018-06-16T22:24:20.727Z,24.80
2018-06-16T22:26:53.856Z,24.90
2018-06-16T22:29:26.887Z,25.00
2018-06-16T22:32:00.084Z,25.10
2018-06-16T22:34:33.304Z,25.20
2018-06-16T22:37:06.408Z,25.20
2018-06-16T22:39:39.439Z,25.20
2018-06-16T22:42:12.564Z,25.20
2018-06-16T22:44:45.771Z,25.20
2018-06-16T22:47:18.784Z,25.30
2018-06-16T22:49:51.915Z,25.30
2018-06-16T22:52:25.028Z,25.30
2018-06-16T22:54:58.077Z,25.40
2018-06-16T22:57:31.173Z,25.40
2018-06-16T23:00:04.361Z,25.40
2018-06-16T23:02:37.682Z,25.40
2018-06-16T23:05:10.880Z,25.40
2018-06-16T23:07:43.981Z,25.50
2018-06-16T23:10:17.071Z,25.50
2018-06-16T23:12:50.309Z,25.50
2018-06-16T23:15:23.413Z,25.60
2018-06-16T23:17:56.509Z,25.60
2018-06-16T23:20:29.561Z,25.60
2018-06-16T23:23:02.681Z,25.70
2018-06-16T23:25:35.784Z,25.70
2018-06-16T23:28:08.862Z,25.70
2018-06-16T23:30:41.947Z,25.70
2018-06-16T23:33:15.046Z,25.70
2018-06-16T23:35:48.135Z,25.80
2018-06-16T23:38:21.159Z,25.80
2018-06-16T23:40:54.316Z,25.70
2018-06-16T23:43:27.358Z,25.70
2018-06-16T23:46:00.399Z,25.70
2018-06-16T23:48:33.545Z,25.80
2018-06-16T23:53:38.413Z,25.90
2018-06-16T23:56:12.249Z,25.90
2018-06-16T23:58:45.316Z,25.90
